createdAt,value
2023-05-09T00:00:14.790Z,99736.88
2023-05-09T00:00:26.699Z,99733.31
2023-05-09T00:00:39.731Z,99735.09
2023-05-09T00:00:51.790Z,99736.81
2023-05-09T00:01:11.057Z,99736.06
2023-05-09T00:01:22.998Z,99733.44
2023-05-09T00:01:35.284Z,99736.97
2023-05-09T00:01:47.207Z,99729.09
2023-05-09T00:01:59.249Z,99728.41
2023-05-09T00:02:11.436Z,99733.59
2023-05-09T00:02:23.651Z,99732.75
2023-05-09T00:02:36.231Z,99731.91
2023-05-09T00:02:48.488Z,99737.16
2023-05-09T00:03:00.704Z,99734.53
2023-05-09T00:03:14.306Z,99728.41
2023-05-09T00:03:26.982Z,99731.25
2023-05-09T00:03:39.631Z,99738.16
2023-05-09T00:03:51.709Z,99728.53
2023-05-09T00:04:05.035Z,99725.91
2023-05-09T00:04:17.041Z,99733.88
2023-05-09T00:04:30.145Z,99724.19
2023-05-09T00:04:42.399Z,99728.78
2023-05-09T00:04:54.416Z,99739.22
2023-05-09T00:05:08.035Z,99719.91
2023-05-09T00:05:21.691Z,99728.69
2023-05-09T00:05:33.657Z,99731.25
2023-05-09T00:05:46.132Z,99730.41
2023-05-09T00:05:58.065Z,99729.53
2023-05-09T00:06:11.511Z,99722.53
2023-05-09T00:06:23.417Z,99727.78
2023-05-09T00:06:35.413Z,99729.53
2023-05-09T00:06:47.360Z,99726.06
2023-05-09T00:06:59.468Z,99730.56
2023-05-09T00:07:11.360Z,99732.28
2023-05-09T00:07:23.256Z,99725.31
2023-05-09T00:07:35.262Z,99726.28
2023-05-09T00:07:48.172Z,99728.13
2023-05-09T00:08:00.235Z,99724.56
2023-05-09T00:08:12.333Z,99727.19
2023-05-09T00:08:24.212Z,99727.19
2023-05-09T00:08:36.298Z,99727.19
2023-05-09T00:08:48.526Z,99725.50
2023-05-09T00:09:00.434Z,99725.50
2023-05-09T00:09:12.738Z,99721.09
2023-05-09T00:09:25.875Z,99729.06
2023-05-09T00:09:37.815Z,99722.13
2023-05-09T00:09:49.705Z,99729.06
2023-05-09T00:10:01.709Z,99728.31
2023-05-09T00:10:14.169Z,99727.38
2023-05-09T00:10:27.396Z,99727.38
2023-05-09T00:10:39.568Z,99724.84
2023-05-09T00:10:52.146Z,99725.69
2023-05-09T00:11:04.124Z,99723.81
2023-05-09T00:11:16.110Z,99725.69
2023-05-09T00:11:30.460Z,99722.13
2023-05-09T00:11:42.464Z,99722.13
2023-05-09T00:11:54.471Z,99723.81
2023-05-09T00:12:06.684Z,99722.97
2023-05-09T00:12:18.584Z,99722.13
2023-05-09T00:12:30.972Z,99722.13
2023-05-09T00:12:43.722Z,99720.44
2023-05-09T00:12:57.377Z,99714.34
2023-05-09T00:13:09.396Z,99723.06
2023-05-09T00:13:21.443Z,99726.63
2023-05-09T00:13:34.657Z,99717.03
2023-05-09T00:13:49.091Z,99712.75
2023-05-09T00:14:02.434Z,99719.66
2023-05-09T00:14:14.390Z,99713.66
2023-05-09T00:14:27.324Z,99717.25
2023-05-09T00:14:40.964Z,99723.34
2023-05-09T00:14:54.242Z,99716.28
2023-05-09T00:15:08.260Z,99719.88
2023-05-09T00:15:20.307Z,99720.63
2023-05-09T00:15:32.280Z,99717.13
2023-05-09T00:15:44.826Z,99712.00
2023-05-09T00:15:59.419Z,99711.03
2023-05-09T00:16:11.424Z,99719.75
2023-05-09T00:16:24.118Z,99718.06
2023-05-09T00:16:36.750Z,99713.81
2023-05-09T00:16:49.204Z,99714.63
2023-05-09T00:17:01.194Z,99718.91
2023-05-09T00:17:14.443Z,99712.81
2023-05-09T00:17:28.583Z,99713.66
2023-05-09T00:17:40.690Z,99712.81
2023-05-09T00:17:52.978Z,99707.66
2023-05-09T00:18:05.175Z,99716.38
2023-05-09T00:18:18.003Z,99707.66
2023-05-09T00:18:30.921Z,99707.56
2023-05-09T00:18:44.031Z,99712.00
2023-05-09T00:18:57.906Z,99710.28
2023-05-09T00:19:09.904Z,99710.28
2023-05-09T00:19:21.891Z,99705.03
2023-05-09T00:19:34.092Z,99708.56
2023-05-09T00:19:46.009Z,99710.28
2023-05-09T00:19:57.895Z,99708.50
2023-05-09T00:20:12.241Z,99710.28
2023-05-09T00:20:24.481Z,99705.94
2023-05-09T00:20:37.493Z,99711.31
2023-05-09T00:20:50.608Z,99705.19
2023-05-09T00:21:03.953Z,99706.06
2023-05-09T00:21:15.850Z,99708.78
2023-05-09T00:21:28.230Z,99707.94
2023-05-09T00:21:40.175Z,99703.53
2023-05-09T00:21:52.191Z,99704.44
2023-05-09T00:22:04.108Z,99707.06
2023-05-09T00:22:21.468Z,99702.75
2023-05-09T00:22:33.360Z,99702.75
2023-05-09T00:22:45.314Z,99701.25
2023-05-09T00:22:57.201Z,99701.16
2023-05-09T00:23:09.713Z,99705.56
2023-05-09T00:23:21.664Z,99696.84
2023-05-09T00:23:33.561Z,99703.88
2023-05-09T00:23:47.005Z,99697.78
2023-05-09T00:24:00.266Z,99700.31
2023-05-09T00:24:12.178Z,99696.91
2023-05-09T00:24:24.152Z,99699.53
2023-05-09T00:24:36.064Z,99695.16
2023-05-09T00:24:48.674Z,99700.41
2023-05-09T00:25:00.832Z,99701.34
2023-05-09T00:25:12.978Z,99695.25
2023-05-09T00:25:25.436Z,99704.91
2023-05-09T00:25:37.364Z,99701.34
2023-05-09T00:25:49.328Z,99697.88
2023-05-09T00:26:01.450Z,99693.53
2023-05-09T00:26:13.382Z,99697.97
2023-05-09T00:26:26.211Z,99690.91
2023-05-09T00:26:38.139Z,99704.03
2023-05-09T00:26:50.049Z,99694.50
2023-05-09T00:27:01.948Z,99704.03
2023-05-09T00:27:14.240Z,99696.28
2023-05-09T00:27:27.268Z,99697.13
2023-05-09T00:27:39.183Z,99697.13
2023-05-09T00:27:51.184Z,99692.91
2023-05-09T00:28:03.312Z,99704.25
2023-05-09T00:28:15.289Z,99699.00
2023-05-09T00:28:27.486Z,99699.16
2023-05-09T00:28:39.409Z,99699.34
2023-05-09T00:28:51.396Z,99695.13
2023-05-09T00:29:03.438Z,99696.88
2023-05-09T00:29:15.458Z,99701.22
2023-05-09T00:29:27.401Z,99691.19
2023-05-09T00:29:39.390Z,99697.97
2023-05-09T00:29:51.334Z,99689.16
2023-05-09T00:30:04.920Z,99692.78
2023-05-09T00:30:16.969Z,99691.19
2023-05-09T00:30:28.883Z,99698.16
2023-05-09T00:30:40.836Z,99692.16
2023-05-09T00:30:53.060Z,99691.38
2023-05-09T00:31:05.619Z,99691.38
2023-05-09T00:31:17.614Z,99698.31
2023-05-09T00:31:29.560Z,99689.53
2023-05-09T00:31:41.491Z,99691.38
2023-05-09T00:31:53.500Z,99686.97
2023-05-09T00:32:05.647Z,99693.06
2023-05-09T00:32:17.636Z,99687.91
2023-05-09T00:32:29.857Z,99689.69
2023-05-09T00:32:41.905Z,99691.38
2023-05-09T00:32:53.986Z,99693.16
2023-05-09T00:33:06.247Z,99691.38
2023-05-09T00:33:19.368Z,99695.69
2023-05-09T00:33:31.351Z,99695.59
2023-05-09T00:33:43.269Z,99687.81
2023-05-09T00:33:55.207Z,99693.06
2023-05-09T00:34:07.134Z,99687.81
2023-05-09T00:34:19.074Z,99691.19
2023-05-09T00:34:31.007Z,99695.59
2023-05-09T00:34:44.022Z,99690.34
2023-05-09T00:34:56.147Z,99694.78
2023-05-09T00:35:09.028Z,99690.34
2023-05-09T00:35:21.066Z,99694.78
2023-05-09T00:35:33.018Z,99690.53
2023-05-09T00:35:44.913Z,99696.63
2023-05-09T00:35:56.847Z,99693.25
2023-05-09T00:36:08.869Z,99693.25
2023-05-09T00:36:21.254Z,99689.00
2023-05-09T00:36:34.101Z,99694.38
2023-05-09T00:36:46.046Z,99689.13
2023-05-09T00:36:57.947Z,99689.88
2023-05-09T00:37:09.954Z,99697.00
2023-05-09T00:37:21.989Z,99693.41
2023-05-09T00:37:33.940Z,99688.16
2023-05-09T00:37:45.940Z,99696.13
2023-05-09T00:37:57.881Z,99700.53
2023-05-09T00:38:09.917Z,99697.00
2023-05-09T00:38:24.834Z,99696.03
2023-05-09T00:38:36.783Z,99698.66
2023-05-09T00:38:49.856Z,99696.03
2023-05-09T00:39:01.749Z,99694.16
2023-05-09T00:39:13.701Z,99689.00
2023-05-09T00:39:25.602Z,99694.16
2023-05-09T00:39:38.883Z,99695.00
2023-05-09T00:39:50.785Z,99689.13
2023-05-09T00:40:04.168Z,99690.88
2023-05-09T00:40:16.103Z,99686.50
2023-05-09T00:40:28.032Z,99689.88
2023-05-09T00:40:40.232Z,99689.88
2023-05-09T00:40:53.270Z,99700.53
2023-05-09T00:41:05.274Z,99689.34
2023-05-09T00:41:17.300Z,99696.59
2023-05-09T00:41:29.254Z,99693.97
2023-05-09T00:41:41.162Z,99693.16
2023-05-09T00:41:53.194Z,99692.41
2023-05-09T00:42:05.202Z,99691.56
2023-05-09T00:42:18.250Z,99691.50
2023-05-09T00:42:30.158Z,99687.09
2023-05-09T00:42:42.113Z,99691.50
2023-05-09T00:42:58.807Z,99694.13
2023-05-09T00:43:10.802Z,99691.50
2023-05-09T00:43:22.720Z,99693.28
2023-05-09T00:43:34.761Z,99692.41
2023-05-09T00:43:46.749Z,99695.97
2023-05-09T00:43:58.677Z,99691.56
2023-05-09T00:44:10.567Z,99688.03
2023-05-09T00:44:34.631Z,99688.72
2023-05-09T00:44:46.553Z,99690.38
2023-05-09T00:44:58.620Z,99685.13
2023-05-09T00:45:11.534Z,99691.13
2023-05-09T00:45:24.021Z,99686.72
2023-05-09T00:45:36.027Z,99688.53
2023-05-09T00:45:48.369Z,99688.53
2023-05-09T00:46:00.444Z,99686.66
2023-05-09T00:46:12.547Z,99681.31
2023-05-09T00:46:25.459Z,99693.59
2023-05-09T00:46:38.605Z,99683.47
2023-05-09T00:46:50.593Z,99687.84
2023-05-09T00:47:02.561Z,99687.00
2023-05-09T00:47:14.547Z,99685.28
2023-05-09T00:47:27.997Z,99684.47
2023-05-09T00:47:40.110Z,99681.75
2023-05-09T00:47:52.403Z,99687.00
2023-05-09T00:48:04.930Z,99688.88
2023-05-09T00:48:18.349Z,99688.88
2023-05-09T00:48:30.360Z,99685.28
2023-05-09T00:48:46.518Z,99684.38
2023-05-09T00:48:58.691Z,99686.94
2023-05-09T00:49:12.294Z,99679.72
2023-05-09T00:49:24.248Z,99682.34
2023-05-09T00:49:36.493Z,99684.88
2023-05-09T00:49:48.493Z,99682.16
2023-05-09T00:50:01.626Z,99681.25
2023-05-09T00:50:13.821Z,99677.66
2023-05-09T00:50:25.818Z,99685.63
2023-05-09T00:50:37.786Z,99679.53
2023-05-09T00:50:53.034Z,99679.63
2023-05-09T00:51:05.264Z,99682.09
2023-05-09T00:51:17.956Z,99680.28
2023-05-09T00:51:30.929Z,99681.25
2023-05-09T00:51:42.968Z,99678.50
2023-05-09T00:51:55.927Z,99675.03
2023-05-09T00:52:07.893Z,99679.63
2023-05-09T00:52:23.313Z,99677.94
2023-05-09T00:52:36.277Z,99676.16
2023-05-09T00:53:01.084Z,99676.16
2023-05-09T00:53:13.378Z,99678.03
2023-05-09T00:53:25.386Z,99684.97
2023-05-09T00:53:37.351Z,99677.88
2023-05-09T00:53:50.617Z,99674.28
2023-05-09T00:54:02.693Z,99670.75
2023-05-09T00:54:14.719Z,99678.63
2023-05-09T00:54:26.814Z,99675.81
2023-05-09T00:54:38.966Z,99679.19
2023-05-09T00:54:52.767Z,99677.50
2023-05-09T00:55:08.984Z,99675.81
2023-05-09T00:55:21.034Z,99682.56
2023-05-09T00:55:33.407Z,99679.03
2023-05-09T00:55:45.536Z,99672.81
2023-05-09T00:55:58.248Z,99670.03
2023-05-09T00:56:11.911Z,99671.72
2023-05-09T00:56:23.994Z,99675.28
2023-05-09T00:56:35.988Z,99673.56
2023-05-09T00:56:48.135Z,99670.88
2023-05-09T00:57:00.728Z,99676.03
2023-05-09T00:57:12.670Z,99676.97
2023-05-09T00:57:24.683Z,99676.97
2023-05-09T00:57:37.154Z,99673.41
2023-05-09T00:57:49.155Z,99672.53
2023-05-09T00:58:02.664Z,99672.47
2023-05-09T00:58:15.025Z,99670.63
2023-05-09T00:58:27.232Z,99671.50
2023-05-09T00:58:39.140Z,99668.91
2023-05-09T00:58:51.669Z,99674.13
2023-05-09T00:59:03.812Z,99669.72
2023-05-09T00:59:17.975Z,99673.25
2023-05-09T00:59:30.193Z,99673.25
2023-05-09T00:59:42.247Z,99671.53
2023-05-09T00:59:54.222Z,99674.16
2023-05-09T01:00:07.022Z,99674.16
2023-05-09T01:00:20.108Z,99671.53
2023-05-09T01:00:32.221Z,99676.78
2023-05-09T01:00:44.119Z,99674.25
2023-05-09T01:00:56.393Z,99668.25
2023-05-09T01:01:08.706Z,99672.66
2023-05-09T01:01:21.257Z,99670.88
2023-05-09T01:01:33.487Z,99677.03
2023-05-09T01:01:46.170Z,99672.75
2023-05-09T01:01:58.290Z,99669.28
2023-05-09T01:02:12.574Z,99671.03
2023-05-09T01:02:24.647Z,99668.53
2023-05-09T01:02:37.363Z,99671.97
2023-05-09T01:02:54.094Z,99673.78
2023-05-09T01:03:06.721Z,99671.22
2023-05-09T01:03:18.909Z,99674.69
2023-05-09T01:03:32.110Z,99675.63
2023-05-09T01:03:45.538Z,99673.00
2023-05-09T01:03:58.299Z,99675.63
2023-05-09T01:04:11.137Z,99672.06
2023-05-09T01:04:23.658Z,99667.75
2023-05-09T01:04:35.974Z,99670.38
2023-05-09T01:04:48.451Z,99668.69
2023-05-09T01:05:00.423Z,99674.88
2023-05-09T01:05:14.366Z,99670.56
2023-05-09T01:05:34.939Z,99670.56
2023-05-09T01:06:02.813Z,99663.63
2023-05-09T01:06:22.836Z,99671.66
2023-05-09T01:06:55.254Z,99669.22
2023-05-09T01:07:30.264Z,99666.75
2023-05-09T01:08:07.821Z,99668.91
2023-05-09T01:08:33.696Z,99660.91
2023-05-09T01:08:59.587Z,99664.50
2023-05-09T01:09:32.388Z,99661.94
2023-05-09T01:09:47.563Z,99670.09
2023-05-09T01:10:15.951Z,99668.38
2023-05-09T01:10:43.658Z,99671.97
2023-05-09T01:11:17.131Z,99666.38
2023-05-09T01:11:36.308Z,99667.78
2023-05-09T01:12:12.379Z,99663.13
2023-05-09T01:12:49.592Z,99663.03
2023-05-09T01:13:20.806Z,99664.91
2023-05-09T01:13:52.416Z,99664.41
2023-05-09T01:14:28.245Z,99663.97
2023-05-09T01:15:14.288Z,99670.56
2023-05-09T01:15:51.599Z,99663.44
2023-05-09T01:16:15.448Z,99667.84
2023-05-09T01:16:58.907Z,99671.16
2023-05-09T01:17:18.029Z,99666.81
2023-05-09T01:17:50.206Z,99661.41
2023-05-09T01:18:16.197Z,99664.88
2023-05-09T01:18:37.975Z,99672.91
2023-05-09T01:19:12.300Z,99666.81
2023-05-09T01:19:46.006Z,99662.31
2023-05-09T01:20:24.194Z,99666.66
2023-05-09T01:20:45.464Z,99664.78
2023-05-09T01:21:08.898Z,99665.38
2023-05-09T01:21:26.962Z,99667.16
2023-05-09T01:21:43.869Z,99669.78
2023-05-09T01:21:57.053Z,99669.78
2023-05-09T01:22:12.064Z,99668.75
2023-05-09T01:22:30.304Z,99668.59
2023-05-09T01:22:55.276Z,99666.81
2023-05-09T01:23:33.207Z,99663.91
2023-05-09T01:23:45.199Z,99662.03
2023-05-09T01:24:10.007Z,99666.28
2023-05-09T01:24:49.401Z,99666.47
2023-05-09T01:25:20.696Z,99666.81
2023-05-09T01:25:38.356Z,99665.78
2023-05-09T01:26:06.333Z,99671.03
2023-05-09T01:26:36.315Z,99662.25
2023-05-09T01:27:22.647Z,99663.66
2023-05-09T01:27:59.206Z,99662.66
2023-05-09T01:28:16.832Z,99666.88
2023-05-09T01:29:17.326Z,99663.44
2023-05-09T01:29:59.598Z,99657.16
2023-05-09T01:30:13.746Z,99656.97
2023-05-09T01:30:26.676Z,99659.59
2023-05-09T01:30:42.541Z,99663.91
2023-05-09T01:30:56.646Z,99662.97
2023-05-09T01:31:09.753Z,99660.34
2023-05-09T01:31:22.759Z,99655.88
2023-05-09T01:31:39.390Z,99658.47
2023-05-09T01:31:52.914Z,99660.16
2023-05-09T01:32:09.593Z,99663.53
2023-05-09T01:32:24.892Z,99659.91
2023-05-09T01:32:39.249Z,99658.28
2023-05-09T01:32:53.959Z,99656.34
2023-05-09T01:33:08.131Z,99657.09
2023-05-09T01:33:21.946Z,99659.63
2023-05-09T01:33:38.348Z,99661.41
2023-05-09T01:33:57.966Z,99661.31
2023-05-09T01:34:11.403Z,99660.56
2023-05-09T01:34:27.310Z,99662.34
2023-05-09T01:34:41.038Z,99657.00
2023-05-09T01:34:56.225Z,99657.00
2023-05-09T01:35:12.581Z,99663.19
2023-05-09T01:35:26.682Z,99659.78
2023-05-09T01:35:44.335Z,99652.88
2023-05-09T01:36:01.862Z,99658.13
2023-05-09T01:36:17.973Z,99656.25
2023-05-09T01:36:32.749Z,99657.94
2023-05-09T01:36:48.742Z,99655.28
2023-05-09T01:37:02.294Z,99650.78
2023-05-09T01:37:16.524Z,99659.63
2023-05-09T01:37:31.368Z,99654.38
2023-05-09T01:37:49.001Z,99648.28
2023-05-09T01:38:05.437Z,99654.38
2023-05-09T01:38:23.744Z,99648.28
2023-05-09T01:38:38.401Z,99650.16
2023-05-09T01:38:52.293Z,99649.28
2023-05-09T01:39:05.878Z,99658.03
2023-05-09T01:39:19.135Z,99655.41
2023-05-09T01:39:33.869Z,99657.16
2023-05-09T01:39:50.679Z,99657.16
2023-05-09T01:40:14.214Z,99656.25
2023-05-09T01:40:30.390Z,99652.88
2023-05-09T01:40:45.387Z,99660.75
2023-05-09T01:40:59.873Z,99655.66
2023-05-09T01:41:15.516Z,99656.63
2023-05-09T01:41:32.060Z,99656.63
2023-05-09T01:41:44.354Z,99649.66
2023-05-09T01:41:58.038Z,99656.63
2023-05-09T01:42:12.566Z,99656.63
2023-05-09T01:42:27.880Z,99656.69
2023-05-09T01:42:44.278Z,99654.16
2023-05-09T01:43:09.951Z,99657.53
2023-05-09T01:43:25.764Z,99656.63
2023-05-09T01:43:38.867Z,99657.53
2023-05-09T01:43:53.497Z,99654.75
2023-05-09T01:44:13.409Z,99658.03
2023-05-09T01:44:25.926Z,99652.66
2023-05-09T01:44:40.937Z,99649.13
2023-05-09T01:44:54.716Z,99652.50
2023-05-09T01:45:08.291Z,99649.88
2023-05-09T01:45:21.039Z,99654.09
2023-05-09T01:45:34.173Z,99655.88
2023-05-09T01:45:48.433Z,99652.34
2023-05-09T01:46:02.298Z,99648.75
2023-05-09T01:46:17.064Z,99648.75
2023-05-09T01:46:30.586Z,99650.34
2023-05-09T01:46:43.611Z,99663.47
2023-05-09T01:46:55.851Z,99652.13
2023-05-09T01:47:09.452Z,99653.84
2023-05-09T01:47:22.929Z,99654.69
2023-05-09T01:47:35.988Z,99655.03
2023-05-09T01:47:49.104Z,99653.34
2023-05-09T01:48:02.419Z,99655.88
2023-05-09T01:48:15.593Z,99652.34
2023-05-09T01:48:30.838Z,99648.75
2023-05-09T01:48:45.313Z,99653.09
2023-05-09T01:49:00.298Z,99653.09
2023-05-09T01:49:13.779Z,99648.66
2023-05-09T01:49:29.537Z,99652.13
2023-05-09T01:49:42.809Z,99648.59
2023-05-09T01:49:55.725Z,99660.78
2023-05-09T01:50:11.229Z,99655.88
2023-05-09T01:50:24.252Z,99649.78
2023-05-09T01:50:37.692Z,99654.97
2023-05-09T01:50:49.814Z,99653.09
2023-05-09T01:51:02.751Z,99654.00
2023-05-09T01:51:16.297Z,99657.84
2023-05-09T01:51:29.593Z,99652.66
2023-05-09T01:51:43.780Z,99654.38
2023-05-09T01:51:57.443Z,99653.53
2023-05-09T01:52:13.460Z,99653.34
2023-05-09T01:52:26.356Z,99655.88
2023-05-09T01:52:41.075Z,99653.16
2023-05-09T01:52:56.110Z,99648.00
2023-05-09T01:53:10.401Z,99654.97
2023-05-09T01:53:24.159Z,99646.50
2023-05-09T01:53:36.681Z,99649.13
2023-05-09T01:53:51.226Z,99646.41
2023-05-09T01:54:05.664Z,99654.47
2023-05-09T01:54:18.715Z,99652.66
2023-05-09T01:54:32.058Z,99653.44
2023-05-09T01:54:45.864Z,99657.75
2023-05-09T01:55:01.326Z,99650.72
2023-05-09T01:55:14.613Z,99651.47
2023-05-09T01:55:31.664Z,99649.88
2023-05-09T01:55:44.067Z,99647.09
2023-05-09T01:55:58.173Z,99647.84
2023-05-09T01:56:12.646Z,99649.34
2023-05-09T01:56:26.457Z,99650.09
2023-05-09T01:56:42.084Z,99649.34
2023-05-09T01:56:55.485Z,99643.34
2023-05-09T01:57:08.890Z,99645.38
2023-05-09T01:57:22.462Z,99643.72
2023-05-09T01:57:36.351Z,99652.34
2023-05-09T01:57:50.176Z,99647.09
2023-05-09T01:58:05.428Z,99648.66
2023-05-09T01:58:18.641Z,99646.88
2023-05-09T01:58:33.632Z,99652.13
2023-05-09T01:58:48.343Z,99645.00
2023-05-09T01:59:02.194Z,99649.44
2023-05-09T01:59:16.307Z,99654.59
2023-05-09T01:59:29.954Z,99646.72
2023-05-09T01:59:45.430Z,99645.84
2023-05-09T01:59:59.009Z,99645.75
2023-05-09T02:00:13.925Z,99651.78
2023-05-09T02:00:27.319Z,99647.25
2023-05-09T02:00:40.438Z,99646.34
2023-05-09T02:00:53.057Z,99645.75
2023-05-09T02:01:05.969Z,99645.84
2023-05-09T02:01:19.751Z,99651.97
2023-05-09T02:01:32.249Z,99651.00
2023-05-09T02:01:46.861Z,99642.22
2023-05-09T02:01:59.459Z,99646.50
2023-05-09T02:02:12.411Z,99645.59
2023-05-09T02:02:27.318Z,99641.09
2023-05-09T02:02:39.965Z,99645.31
2023-05-09T02:02:53.308Z,99646.16
2023-05-09T02:03:06.193Z,99650.47
2023-05-09T02:03:18.710Z,99654.78
2023-05-09T02:03:33.947Z,99645.97
2023-05-09T02:03:50.678Z,99646.72
2023-05-09T02:04:04.560Z,99651.03
2023-05-09T02:04:18.616Z,99647.56
2023-05-09T02:04:31.006Z,99645.97
2023-05-09T02:04:44.153Z,99650.47
2023-05-09T02:04:57.194Z,99653.09
2023-05-09T02:05:10.765Z,99640.06
2023-05-09T02:05:27.297Z,99649.72
2023-05-09T02:05:40.208Z,99654.31
2023-05-09T02:05:52.803Z,99646.72
2023-05-09T02:06:05.102Z,99645.22
2023-05-09T02:06:18.539Z,99648.75
2023-05-09T02:06:32.547Z,99648.59
2023-05-09T02:06:49.535Z,99645.22
2023-05-09T02:07:02.417Z,99647.84
2023-05-09T02:07:15.040Z,99648.59
2023-05-09T02:07:29.935Z,99645.75
2023-05-09T02:07:42.789Z,99650.09
2023-05-09T02:07:59.442Z,99646.59
2023-05-09T02:08:14.125Z,99644.84
2023-05-09T02:08:26.695Z,99644.84
2023-05-09T02:08:38.844Z,99648.22
2023-05-09T02:08:51.089Z,99650.09
2023-05-09T02:09:03.482Z,99649.44
2023-05-09T02:09:15.767Z,99651.00
2023-05-09T02:09:27.831Z,99648.38
2023-05-09T02:09:39.784Z,99650.09
2023-05-09T02:09:54.007Z,99649.22
2023-05-09T02:10:09.028Z,99646.50
2023-05-09T02:10:22.621Z,99644.72
2023-05-09T02:10:35.698Z,99650.84
2023-05-09T02:10:49.265Z,99648.22
2023-05-09T02:11:01.265Z,99649.91
2023-05-09T02:11:13.198Z,99645.59
2023-05-09T02:11:25.779Z,99635.84
2023-05-09T02:11:37.717Z,99642.75
2023-05-09T02:11:49.700Z,99640.97
2023-05-09T02:12:01.986Z,99640.88
2023-05-09T02:12:13.920Z,99641.84
2023-05-09T02:12:26.736Z,99640.88
2023-05-09T02:12:39.848Z,99643.50
2023-05-09T02:12:52.555Z,99640.81
2023-05-09T02:13:04.516Z,99639.00
2023-05-09T02:13:17.072Z,99644.25
2023-05-09T02:13:29.929Z,99639.84
2023-05-09T02:13:41.979Z,99639.00
2023-05-09T02:13:53.964Z,99644.25
2023-05-09T02:14:06.294Z,99640.88
2023-05-09T02:14:18.230Z,99635.84
2023-05-09T02:14:31.123Z,99638.25
2023-05-09T02:14:43.546Z,99639.97
2023-05-09T02:14:55.570Z,99639.84
2023-05-09T02:15:08.822Z,99637.13
2023-05-09T02:15:21.752Z,99637.13
2023-05-09T02:15:34.299Z,99638.94
2023-05-09T02:15:47.089Z,99632.72
2023-05-09T02:15:59.581Z,99634.44
2023-05-09T02:16:12.101Z,99631.88
2023-05-09T02:16:24.175Z,99636.22
2023-05-09T02:16:36.307Z,99631.88
2023-05-09T02:16:48.458Z,99637.88
2023-05-09T02:17:06.302Z,99631.72
2023-05-09T02:17:19.144Z,99637.81
2023-05-09T02:17:31.326Z,99635.09
2023-05-09T02:17:43.317Z,99636.75
2023-05-09T02:17:55.327Z,99632.25
2023-05-09T02:18:07.373Z,99634.88
2023-05-09T02:18:19.282Z,99634.88
2023-05-09T02:18:32.530Z,99630.50
2023-05-09T02:18:44.444Z,99636.75
2023-05-09T02:18:56.396Z,99629.84
2023-05-09T02:19:08.324Z,99631.50
2023-05-09T02:19:20.220Z,99633.38
2023-05-09T02:19:35.828Z,99629.63
2023-05-09T02:19:47.805Z,99632.38
2023-05-09T02:19:59.866Z,99636.59
2023-05-09T02:20:13.466Z,99634.88
2023-05-09T02:20:25.389Z,99636.59
2023-05-09T02:20:37.358Z,99635.63
2023-05-09T02:20:49.354Z,99628.72
2023-05-09T02:21:02.751Z,99637.44
2023-05-09T02:21:14.690Z,99631.34
2023-05-09T02:21:29.074Z,99632.16
2023-05-09T02:21:41.352Z,99631.25
2023-05-09T02:21:53.277Z,99631.34
2023-05-09T02:22:05.326Z,99638.25
2023-05-09T02:22:17.618Z,99635.63
2023-05-09T02:22:29.568Z,99632.25
2023-05-09T02:22:42.960Z,99631.34
2023-05-09T02:22:54.949Z,99631.34
2023-05-09T02:23:06.973Z,99634.88
2023-05-09T02:23:20.150Z,99634.88
2023-05-09T02:23:32.080Z,99629.63
2023-05-09T02:23:44.126Z,99630.59
2023-05-09T02:23:56.485Z,99633.22
2023-05-09T02:24:08.467Z,99635.00
2023-05-09T02:24:20.482Z,99636.69
2023-05-09T02:24:34.302Z,99629.63
2023-05-09T02:24:46.278Z,99627.88
2023-05-09T02:24:58.264Z,99629.63
2023-05-09T02:25:14.277Z,99624.28
2023-05-09T02:25:26.440Z,99629.47
2023-05-09T02:25:39.369Z,99625.88
2023-05-09T02:25:54.099Z,99630.22
2023-05-09T02:26:06.552Z,99629.25
2023-05-09T02:26:19.470Z,99636.22
2023-05-09T02:26:31.671Z,99625.69
2023-05-09T02:26:44.053Z,99630.00
2023-05-09T02:26:57.755Z,99626.53
2023-05-09T02:27:11.660Z,99630.00
2023-05-09T02:27:23.832Z,99629.06
2023-05-09T02:27:38.665Z,99629.06
2023-05-09T02:27:51.952Z,99627.38
2023-05-09T02:28:04.106Z,99629.47
2023-05-09T02:28:19.385Z,99632.16
2023-05-09T02:28:31.669Z,99629.63
2023-05-09T02:28:45.468Z,99631.34
2023-05-09T02:28:58.758Z,99624.38
2023-05-09T02:29:11.629Z,99629.63
2023-05-09T02:29:40.426Z,99635.63
2023-05-09T02:29:56.379Z,99628.63
2023-05-09T02:30:11.348Z,99626.84
2023-05-09T02:30:27.772Z,99629.47
2023-05-09T02:30:44.175Z,99624.94
2023-05-09T02:30:58.713Z,99624.94
2023-05-09T02:31:13.054Z,99628.50
2023-05-09T02:31:28.322Z,99631.88
2023-05-09T02:31:42.266Z,99629.25
2023-05-09T02:31:54.561Z,99627.59
2023-05-09T02:32:09.731Z,99629.47
2023-05-09T02:32:28.813Z,99630.38
2023-05-09T02:32:44.100Z,99624.38
2023-05-09T02:33:02.367Z,99622.69
2023-05-09T02:33:14.499Z,99627.13
2023-05-09T02:33:27.384Z,99621.94
2023-05-09T02:33:41.346Z,99627.22
2023-05-09T02:33:54.525Z,99628.13
2023-05-09T02:34:07.246Z,99624.59
2023-05-09T02:34:20.179Z,99627.28
2023-05-09T02:34:33.136Z,99626.53
2023-05-09T02:34:46.046Z,99633.59
2023-05-09T02:35:00.801Z,99626.63
2023-05-09T02:35:14.995Z,99626.63
2023-05-09T02:35:28.820Z,99628.50
2023-05-09T02:35:44.391Z,99627.75
2023-05-09T02:35:57.196Z,99626.16
2023-05-09T02:36:10.249Z,99628.88
2023-05-09T02:36:23.314Z,99629.72
2023-05-09T02:36:35.748Z,99628.88
2023-05-09T02:36:47.789Z,99628.03
2023-05-09T02:37:00.225Z,99631.50
2023-05-09T02:37:13.638Z,99628.88
2023-05-09T02:37:26.148Z,99628.88
2023-05-09T02:37:40.117Z,99633.22
2023-05-09T02:37:52.922Z,99628.88
2023-05-09T02:38:06.343Z,99630.59
2023-05-09T02:38:19.246Z,99627.09
2023-05-09T02:38:31.534Z,99629.72
2023-05-09T02:38:45.137Z,99628.88
2023-05-09T02:38:57.092Z,99631.41
2023-05-09T02:39:09.642Z,99629.63
2023-05-09T02:39:21.814Z,99629.53
2023-05-09T02:39:34.526Z,99629.53
2023-05-09T02:39:47.285Z,99626.09
2023-05-09T02:40:00.000Z,99625.97
2023-05-09T02:40:13.358Z,99625.13
2023-05-09T02:40:28.058Z,99633.75
2023-05-09T02:40:42.846Z,99630.22
2023-05-09T02:40:55.008Z,99629.25
2023-05-09T02:41:07.345Z,99622.22
2023-05-09T02:41:19.383Z,99623.09
2023-05-09T02:41:31.672Z,99628.41
2023-05-09T02:41:49.323Z,99627.47
2023-05-09T02:42:10.706Z,99631.88
2023-05-09T02:42:27.685Z,99631.03
2023-05-09T02:42:39.648Z,99623.25
2023-05-09T02:42:51.696Z,99624.97
2023-05-09T02:43:04.137Z,99625.78
2023-05-09T02:43:16.309Z,99622.34
2023-05-09T02:43:28.218Z,99621.56
2023-05-09T02:43:40.261Z,99627.75
2023-05-09T02:43:52.439Z,99625.97
2023-05-09T02:44:05.103Z,99624.28
2023-05-09T02:44:17.015Z,99623.47
2023-05-09T02:44:28.949Z,99623.47
2023-05-09T02:44:40.939Z,99626.25
2023-05-09T02:44:53.742Z,99627.00
2023-05-09T02:45:07.120Z,99630.59
2023-05-09T02:45:19.160Z,99622.78
2023-05-09T02:45:32.209Z,99616.69
2023-05-09T02:45:44.630Z,99623.63
2023-05-09T02:45:56.645Z,99625.34
2023-05-09T02:46:10.187Z,99625.34
2023-05-09T02:46:22.384Z,99624.38
2023-05-09T02:46:34.445Z,99625.34
2023-05-09T02:46:46.710Z,99616.59
2023-05-09T02:46:58.744Z,99628.97
2023-05-09T02:47:11.066Z,99623.81
2023-05-09T02:47:23.469Z,99626.47
2023-05-09T02:47:35.469Z,99622.97
2023-05-09T02:47:47.620Z,99623.81
2023-05-09T02:48:00.022Z,99627.38
2023-05-09T02:48:12.096Z,99626.63
2023-05-09T02:48:24.603Z,99625.69